createdAt,value
2018-05-17T00:00:50.265Z,18.60
2018-05-17T00:02:55.079Z,18.50
2018-05-17T00:04:59.063Z,18.40
2018-05-17T00:07:02.966Z,18.50
2018-05-17T00:09:07.452Z,18.60
2018-05-17T00:11:11.418Z,18.60
2018-05-17T00:13:15.395Z,18.60
2018-05-17T00:15:21.587Z,18.60
2018-05-17T00:17:25.450Z,18.60
2018-05-17T00:19:30.084Z,18.70
2018-05-17T00:21:35.371Z,18.70
2018-05-17T00:23:40.687Z,18.70
2018-05-17T00:25:44.614Z,18.70
2018-05-17T00:27:49.341Z,18.70
2018-05-17T00:29:53.993Z,18.70
2018-05-17T00:31:57.839Z,18.70
2018-05-17T00:34:02.057Z,18.70
2018-05-17T00:36:06.034Z,18.80
2018-05-17T00:38:09.989Z,18.70
2018-05-17T00:40:14.266Z,18.70
2018-05-17T00:42:19.182Z,18.70
2018-05-17T00:44:23.877Z,18.70
2018-05-17T00:46:28.254Z,18.60
2018-05-17T00:48:32.185Z,18.50
2018-05-17T00:50:36.062Z,18.50
2018-05-17T00:52:40.278Z,18.70
2018-05-17T00:54:44.207Z,18.70
2018-05-17T00:56:48.029Z,18.70
2018-05-17T00:58:53.338Z,18.80
2018-05-17T01:00:57.198Z,18.80
2018-05-17T01:03:01.432Z,18.70
2018-05-17T01:05:06.645Z,18.60
2018-05-17T01:07:10.503Z,18.60
2018-05-17T01:09:15.159Z,18.60
2018-05-17T01:11:19.292Z,18.60
2018-05-17T01:13:24.232Z,18.60
2018-05-17T01:15:28.210Z,18.60
2018-05-17T01:17:33.499Z,18.70
2018-05-17T01:19:37.437Z,18.70
2018-05-17T01:21:41.345Z,18.70
2018-05-17T01:23:45.210Z,18.70
2018-05-17T01:25:49.138Z,18.70
2018-05-17T01:27:53.781Z,18.80
2018-05-17T01:29:57.985Z,18.90
2018-05-17T01:32:01.894Z,18.90
2018-05-17T01:34:05.908Z,18.90
2018-05-17T01:36:10.282Z,18.80
2018-05-17T01:38:26.165Z,18.80
2018-05-17T01:40:30.947Z,18.80
2018-05-17T02:01:40.716Z,18.80
2018-05-17T02:03:48.763Z,18.90
2018-05-17T02:05:53.743Z,18.60
2018-05-17T02:07:59.228Z,18.60
2018-05-17T02:10:03.300Z,18.60
2018-05-17T02:12:08.030Z,18.60
2018-05-17T02:14:14.296Z,18.60
2018-05-17T02:40:18.052Z,18.60
2018-05-17T02:42:23.941Z,18.20
2018-05-17T02:44:29.547Z,18.20
2018-05-17T02:46:35.773Z,17.80
2018-05-17T02:48:41.409Z,17.80
2018-05-17T02:50:46.874Z,17.70
2018-05-17T03:00:53.032Z,17.90
2018-05-17T03:11:25.941Z,18.10
2018-05-17T03:25:32.827Z,17.70
2018-05-17T03:27:40.085Z,17.10
2018-05-17T03:30:03.121Z,17.10
2018-05-17T03:32:11.324Z,17.10
2018-05-17T03:34:17.416Z,17.10
2018-05-17T03:39:20.792Z,17.10
2018-05-17T03:41:24.990Z,17.10
2018-05-17T03:43:28.908Z,17.20
2018-05-17T03:45:33.790Z,17.30
2018-05-17T03:47:37.691Z,17.40
2018-05-17T03:49:41.572Z,17.50
2018-05-17T03:51:45.456Z,17.50
2018-05-17T03:53:49.311Z,17.60
2018-05-17T03:55:53.252Z,17.60
2018-05-17T03:57:57.095Z,17.60
2018-05-17T04:00:00.853Z,17.50
2018-05-17T04:04:19.013Z,17.40
2018-05-17T04:06:39.095Z,17.20
2018-05-17T04:08:43.465Z,17.10
2018-05-17T04:10:48.140Z,17.00
2018-05-17T04:12:52.124Z,16.90
2018-05-17T04:14:56.480Z,16.90
2018-05-17T04:17:00.422Z,16.90
2018-05-17T04:19:04.327Z,16.90
2018-05-17T04:21:08.662Z,16.90
2018-05-17T04:23:12.598Z,17.00
2018-05-17T04:25:16.564Z,17.00
2018-05-17T04:27:20.511Z,17.00
2018-05-17T04:29:24.495Z,17.00
2018-05-17T04:31:28.380Z,17.00
2018-05-17T04:33:33.585Z,17.00
2018-05-17T04:35:37.459Z,16.90
2018-05-17T04:37:42.106Z,16.90
2018-05-17T04:39:46.369Z,16.80
2018-05-17T04:41:50.232Z,16.90
2018-05-17T04:43:54.109Z,16.90
2018-05-17T04:45:58.337Z,17.00
2018-05-17T04:48:02.255Z,17.00
2018-05-17T04:50:06.223Z,17.00
2018-05-17T04:52:10.098Z,16.90
2018-05-17T04:54:14.013Z,16.90
2018-05-17T04:56:17.814Z,17.00
2018-05-17T04:58:22.458Z,17.10
2018-05-17T05:00:27.279Z,17.20
2018-05-17T05:02:31.278Z,17.20
2018-05-17T05:04:35.644Z,17.10
2018-05-17T05:06:39.613Z,17.00
2018-05-17T05:08:43.514Z,17.00
2018-05-17T05:10:47.736Z,17.00
2018-05-17T05:12:51.620Z,17.00
2018-05-17T05:14:55.486Z,17.00
2018-05-17T05:16:59.940Z,17.00
2018-05-17T05:19:03.996Z,17.20
2018-05-17T05:21:07.963Z,17.10
2018-05-17T05:23:14.294Z,17.10
2018-05-17T05:25:19.155Z,17.20
2018-05-17T05:27:23.033Z,17.20
2018-05-17T05:29:27.695Z,17.30
2018-05-17T05:31:32.182Z,17.30
2018-05-17T05:33:36.634Z,17.30
2018-05-17T05:35:41.786Z,17.20
2018-05-17T05:37:46.874Z,17.10
2018-05-17T05:39:50.985Z,17.10
2018-05-17T05:41:55.129Z,17.10
2018-05-17T05:43:59.056Z,17.10
2018-05-17T05:46:04.516Z,17.10
2018-05-17T05:48:09.020Z,17.20
2018-05-17T05:50:12.970Z,17.10
2018-05-17T05:52:17.692Z,17.00
2018-05-17T05:54:21.860Z,17.00
2018-05-17T05:56:25.804Z,16.90
2018-05-17T05:58:31.220Z,17.10
2018-05-17T06:00:36.964Z,17.10
2018-05-17T06:02:42.540Z,17.30
2018-05-17T06:04:47.580Z,17.00
2018-05-17T06:06:52.659Z,16.90
2018-05-17T06:08:56.455Z,16.90
2018-05-17T06:11:00.318Z,17.00
2018-05-17T06:13:04.981Z,17.10
2018-05-17T06:15:08.896Z,17.00
2018-05-17T06:17:12.817Z,17.00
2018-05-17T06:19:17.737Z,16.60
2018-05-17T06:21:21.645Z,16.60
2018-05-17T06:23:25.514Z,16.50
2018-05-17T06:25:30.832Z,16.30
2018-05-17T06:27:35.506Z,16.20
2018-05-17T06:29:39.861Z,16.10
2018-05-17T06:31:46.513Z,16.20
2018-05-17T06:33:50.409Z,16.20
2018-05-17T06:35:54.313Z,16.30
2018-05-17T06:37:58.581Z,16.30
2018-05-17T06:40:02.738Z,16.50
2018-05-17T06:42:06.635Z,16.70
2018-05-17T06:44:11.028Z,16.80
2018-05-17T06:46:16.457Z,17.00
2018-05-17T06:48:20.428Z,17.00
2018-05-17T06:50:26.734Z,17.00
2018-05-17T06:52:30.738Z,17.00
2018-05-17T06:54:35.472Z,17.10
2018-05-17T06:56:39.868Z,17.10
2018-05-17T06:58:44.632Z,17.10
2018-05-17T07:00:48.551Z,17.20
2018-05-17T07:02:52.762Z,17.30
2018-05-17T07:04:57.469Z,17.40
2018-05-17T07:07:01.414Z,17.40
2018-05-17T07:09:11.438Z,17.30
2018-05-17T07:11:25.249Z,17.30
2018-05-17T07:13:31.443Z,17.20
2018-05-17T07:15:35.774Z,17.30
2018-05-17T07:17:41.178Z,17.00
2018-05-17T07:19:45.174Z,16.90
2018-05-17T07:21:53.454Z,16.80
2018-05-17T07:23:57.360Z,16.70
2018-05-17T07:26:01.928Z,16.70
2018-05-17T07:28:05.962Z,16.70
2018-05-17T07:30:09.923Z,16.70
2018-05-17T07:32:15.634Z,16.70
2018-05-17T07:34:19.963Z,16.80
2018-05-17T07:36:23.973Z,16.80
2018-05-17T07:38:28.012Z,16.90
2018-05-17T07:44:30.980Z,16.90
2018-05-17T07:56:11.893Z,17.70
2018-05-17T07:58:32.771Z,17.70
2018-05-17T08:06:49.063Z,17.70
2018-05-17T08:08:54.609Z,17.90
2018-05-17T08:11:30.565Z,18.30
2018-05-17T08:13:40.944Z,18.20
2018-05-17T08:15:57.970Z,18.50
2018-05-17T08:18:40.671Z,18.50
2018-05-17T08:20:51.477Z,18.50
2018-05-17T08:23:02.554Z,18.50
2018-05-17T08:25:15.177Z,18.50
2018-05-17T08:30:30.285Z,18.70
2018-05-17T08:32:42.040Z,18.70
2018-05-17T08:35:06.958Z,18.90
2018-05-17T08:37:25.175Z,18.90
2018-05-17T08:39:35.455Z,18.90
2018-05-17T08:42:11.538Z,19.00
2018-05-17T08:47:01.102Z,19.50
2018-05-17T08:49:10.865Z,19.60
2018-05-17T09:07:51.951Z,20.10
2018-05-17T09:10:05.919Z,20.00
2018-05-17T09:12:15.094Z,20.00
2018-05-17T09:14:24.756Z,20.10
2018-05-17T09:24:34.537Z,20.20
2018-05-17T09:27:08.423Z,20.40
2018-05-17T09:32:09.773Z,21.00
2018-05-17T09:34:19.826Z,20.90
2018-05-17T09:36:42.357Z,21.30
2018-05-17T09:39:09.666Z,21.60
2018-05-17T09:41:21.790Z,21.90
2018-05-17T09:52:34.872Z,22.80
2018-05-17T09:58:17.204Z,23.10
2018-05-17T10:00:26.974Z,23.70
2018-05-17T10:02:40.616Z,23.90
2018-05-17T10:04:48.448Z,24.00
2018-05-17T10:06:57.531Z,23.90
2018-05-17T10:09:14.537Z,23.90
2018-05-17T10:11:33.764Z,23.80
2018-05-17T10:13:44.109Z,23.50
2018-05-17T10:15:51.776Z,23.40
2018-05-17T10:23:19.740Z,23.90
2018-05-17T10:25:37.166Z,24.20
2018-05-17T10:27:49.481Z,24.50
2018-05-17T10:29:57.347Z,24.80
2018-05-17T10:37:16.805Z,25.30
2018-05-17T10:39:40.095Z,25.50
2018-05-17T10:42:05.420Z,25.70
2018-05-17T10:44:35.316Z,25.90
2018-05-17T10:46:42.980Z,26.10
2018-05-17T10:48:50.535Z,26.00
2018-05-17T10:52:56.198Z,25.80
2018-05-17T10:55:14.067Z,25.70
2018-05-17T10:57:33.212Z,25.10
2018-05-17T11:00:04.954Z,25.20
2018-05-17T11:02:38.558Z,25.40
2018-05-17T11:07:40.737Z,25.40
2018-05-17T11:12:58.226Z,26.20
2018-05-17T11:15:05.218Z,26.00
2018-05-17T11:17:10.003Z,26.00
2018-05-17T11:19:14.118Z,25.70
2018-05-17T11:21:21.004Z,25.30
2018-05-17T11:23:31.317Z,25.00
2018-05-17T11:25:38.218Z,24.70
2018-05-17T11:27:45.346Z,25.20
2018-05-17T11:30:01.153Z,26.20
2018-05-17T11:32:14.268Z,26.80
2018-05-17T11:34:25.781Z,25.90
2018-05-17T11:36:35.933Z,25.70
2018-05-17T11:38:40.865Z,26.30
2018-05-17T11:40:45.889Z,26.30
2018-05-17T11:42:51.483Z,25.90
2018-05-17T11:44:57.774Z,25.40
2018-05-17T11:47:03.585Z,25.30
2018-05-17T11:49:07.823Z,25.20
2018-05-17T11:51:11.736Z,25.20
2018-05-17T11:53:16.812Z,25.20
2018-05-17T11:55:22.101Z,25.00
2018-05-17T11:57:28.402Z,24.70
2018-05-17T11:59:47.212Z,24.60
2018-05-17T12:01:57.928Z,24.50
2018-05-17T12:04:29.095Z,24.60
2018-05-17T12:06:36.185Z,24.80
2018-05-17T12:08:46.389Z,24.60
2018-05-17T12:10:54.160Z,25.00
2018-05-17T12:13:02.526Z,25.30
2018-05-17T12:15:15.957Z,25.50
2018-05-17T12:17:24.996Z,25.50
2018-05-17T12:19:41.678Z,25.30
2018-05-17T12:21:49.129Z,24.80
2018-05-17T12:24:02.481Z,24.60
2018-05-17T12:26:07.182Z,24.60
2018-05-17T12:35:30.435Z,26.50
2018-05-17T12:37:40.544Z,26.50
2018-05-17T12:39:54.751Z,26.70
2018-05-17T12:41:59.378Z,27.00
2018-05-17T12:44:04.249Z,26.90
2018-05-17T12:46:14.571Z,26.70
2018-05-17T12:48:18.747Z,26.40
2018-05-17T12:50:27.891Z,26.40
2018-05-17T12:52:36.632Z,26.50
2018-05-17T12:54:41.834Z,26.80
2018-05-17T12:56:48.536Z,26.70
2018-05-17T12:59:01.835Z,27.30
2018-05-17T13:05:56.241Z,27.40
2018-05-17T13:25:53.837Z,28.70
2018-05-17T13:51:19.358Z,29.80
2018-05-17T13:53:39.603Z,30.80
2018-05-17T13:55:48.457Z,30.70
2018-05-17T13:57:58.808Z,31.10
2018-05-17T14:00:09.978Z,31.00
2018-05-17T14:02:17.365Z,31.30
2018-05-17T14:04:32.669Z,31.90
2018-05-17T14:06:53.487Z,31.80
2018-05-17T14:09:10.465Z,31.40
2018-05-17T14:11:20.002Z,30.90
2018-05-17T14:13:26.478Z,30.80
2018-05-17T14:18:41.848Z,30.50
2018-05-17T14:26:27.574Z,30.50
2018-05-17T14:28:34.283Z,29.90
2018-05-17T14:30:46.805Z,29.20
2018-05-17T14:33:05.281Z,29.10
2018-05-17T14:35:20.041Z,29.60
2018-05-17T14:37:27.093Z,30.00
2018-05-17T14:39:51.644Z,29.90
2018-05-17T14:42:55.858Z,29.90
2018-05-17T14:45:18.700Z,30.30
2018-05-17T14:47:25.068Z,30.70
2018-05-17T14:49:31.605Z,30.40
2018-05-17T14:54:10.492Z,30.60
2018-05-17T14:56:16.825Z,30.20
2018-05-17T14:58:22.247Z,30.20
2018-05-17T15:00:28.415Z,30.20
2018-05-17T15:02:35.952Z,30.60
2018-05-17T15:04:40.565Z,31.00
2018-05-17T15:06:47.389Z,30.60
2018-05-17T15:08:55.445Z,30.50
2018-05-17T15:11:03.889Z,30.40
2018-05-17T15:13:10.004Z,30.50
2018-05-17T15:24:52.265Z,31.60
2018-05-17T15:26:57.769Z,30.20
2018-05-17T15:29:06.332Z,29.50
2018-05-17T15:31:13.027Z,28.70
2018-05-17T15:33:17.255Z,28.50
2018-05-17T15:35:22.421Z,28.50
2018-05-17T15:37:30.651Z,28.60
2018-05-17T15:39:37.869Z,29.20
2018-05-17T15:42:07.135Z,29.60
2018-05-17T15:45:57.809Z,29.60
2018-05-17T15:48:02.837Z,30.30
2018-05-17T15:50:20.684Z,31.30
2018-05-17T15:55:01.732Z,31.40
2018-05-17T15:57:06.137Z,31.10
2018-05-17T15:59:11.910Z,31.30
2018-05-17T16:01:18.652Z,31.20
2018-05-17T16:03:23.828Z,31.00
2018-05-17T16:05:28.503Z,30.10
2018-05-17T16:07:34.136Z,29.50
2018-05-17T16:47:02.123Z,29.80
2018-05-17T16:56:24.321Z,29.70
2018-05-17T16:58:42.182Z,29.30
2018-05-17T17:10:25.433Z,28.90
2018-05-17T17:31:34.658Z,28.30
2018-05-17T17:33:47.244Z,28.20
2018-05-17T17:35:54.035Z,28.10
2018-05-17T17:37:58.897Z,28.20
2018-05-17T17:40:06.953Z,28.00
2018-05-17T17:44:22.965Z,27.50
2018-05-17T17:46:35.282Z,27.20
2018-05-17T17:53:13.167Z,25.60
2018-05-17T17:57:35.059Z,24.40
2018-05-17T17:59:42.463Z,23.80
2018-05-17T18:01:48.209Z,23.50
2018-05-17T18:03:58.386Z,23.10
2018-05-17T18:06:07.231Z,22.80
2018-05-17T18:08:23.773Z,22.60
2018-05-17T18:12:48.839Z,22.20
2018-05-17T18:14:53.576Z,22.10
2018-05-17T18:17:03.475Z,22.10
2018-05-17T18:21:22.709Z,21.70
2018-05-17T18:23:30.030Z,21.50
2018-05-17T18:25:35.693Z,21.50
2018-05-17T18:27:45.295Z,21.50
2018-05-17T18:29:53.517Z,21.30
2018-05-17T18:31:57.964Z,21.20
2018-05-17T18:36:19.318Z,20.90
2018-05-17T18:40:46.663Z,20.60
2018-05-17T18:47:35.259Z,20.30
2018-05-17T19:39:53.381Z,18.20
2018-05-17T19:56:16.900Z,18.10
2018-05-17T19:58:24.900Z,18.10
2018-05-17T20:33:44.642Z,17.70
2018-05-17T20:35:59.424Z,17.70
2018-05-17T20:40:34.051Z,17.70
2018-05-17T20:42:46.649Z,17.70
2018-05-17T20:45:00.012Z,17.70
2018-05-17T20:47:05.019Z,17.70
2018-05-17T20:49:15.514Z,17.60
2018-05-17T20:51:19.706Z,17.50
2018-05-17T20:53:23.811Z,17.60
2018-05-17T20:55:28.060Z,17.50
2018-05-17T20:57:32.823Z,17.30
2018-05-17T20:59:37.122Z,17.30
2018-05-17T21:01:41.695Z,17.30
2018-05-17T21:03:48.217Z,17.30
2018-05-17T21:05:52.552Z,17.20
2018-05-17T21:07:56.832Z,17.20
2018-05-17T21:10:02.834Z,17.20
2018-05-17T21:12:07.153Z,17.20
2018-05-17T21:14:12.951Z,17.20
2018-05-17T21:16:18.915Z,17.30
2018-05-17T21:18:25.557Z,17.20
2018-05-17T21:20:32.739Z,17.20
2018-05-17T21:22:39.569Z,17.20
2018-05-17T21:24:44.433Z,17.10
2018-05-17T21:26:52.194Z,17.00
2018-05-17T21:28:57.122Z,16.90
2018-05-17T21:31:03.641Z,17.00
2018-05-17T21:33:08.382Z,17.00
2018-05-17T21:35:21.367Z,17.00
2018-05-17T21:37:26.414Z,17.10
2018-05-17T21:39:32.170Z,17.10
2018-05-17T21:41:37.830Z,17.00
2018-05-17T21:43:42.169Z,16.90
2018-05-17T21:45:47.464Z,16.80
2018-05-17T21:47:55.112Z,16.50
2018-05-17T21:50:01.841Z,16.50
2018-05-17T21:52:09.007Z,16.50
2018-05-17T21:54:13.695Z,16.40
2018-05-17T21:56:20.940Z,16.20
2018-05-17T21:58:31.970Z,16.10
2018-05-17T22:03:23.796Z,15.90
2018-05-17T23:00:14.948Z,15.10
2018-05-17T23:02:30.181Z,15.10
2018-05-17T23:06:50.878Z,15.30
2018-05-17T23:09:04.626Z,15.30
2018-05-17T23:11:13.430Z,15.50
2018-05-17T23:13:18.018Z,15.40
2018-05-17T23:15:24.157Z,15.40
2018-05-17T23:17:31.588Z,15.30
2018-05-17T23:19:42.166Z,15.40
2018-05-17T23:21:49.718Z,15.30
2018-05-17T23:23:56.745Z,15.10
2018-05-17T23:28:34.584Z,15.00
2018-05-17T23:38:21.283Z,14.80
2018-05-17T23:40:37.117Z,14.60
2018-05-17T23:42:47.387Z,14.60
2018-05-17T23:44:51.917Z,14.60
2018-05-17T23:46:55.954Z,14.70
2018-05-17T23:49:01.332Z,14.80
2018-05-17T23:51:07.496Z,14.90
2018-05-17T23:53:12.512Z,15.00
2018-05-17T23:55:21.578Z,15.00
2018-05-17T23:57:25.820Z,14.90
2018-05-17T23:59:30.027Z,15.00
